Time;durP1;ratioP1;P1;durP2;ratioP2;P2;SDS_P1;SDS_P2;PMS_P1;PMS_P2;Temp;Humidity;BMP_temperature;BMP_pressure;BME280_temperature;BME280_humidity;BME280_pressure;Samples;Min_cycle;Max_cycle;Signal;HPM_P1;HPM_P2
2022/05/17 00:02:05;;;;;;;1.70;1.60;;;25.70;44.20;;;;;;5027492;28;20519;-61
2022/05/17 00:04:34;;;;;;;1.70;1.60;;;25.70;44.20;;;;;;5028130;28;20442;-61
2022/05/17 00:07:04;;;;;;;1.52;1.50;;;25.70;44.20;;;;;;5026249;28;20132;-61
2022/05/17 00:09:32;;;;;;;1.58;1.48;;;25.70;44.20;;;;;;5025790;28;20448;-61
2022/05/17 00:11:59;;;;;;;1.48;1.38;;;25.70;44.20;;;;;;5027104;28;20077;-61
2022/05/17 00:14:27;;;;;;;1.38;1.30;;;25.70;44.20;;;;;;5027765;28;20049;-62
2022/05/17 00:16:55;;;;;;;1.77;1.67;;;25.70;44.30;;;;;;5026276;28;20119;-61
2022/05/17 00:19:23;;;;;;;1.90;1.80;;;25.70;44.20;;;;;;5027992;28;20081;-62
2022/05/17 00:21:51;;;;;;;1.80;1.70;;;25.70;44.20;;;;;;5027474;28;20474;-61
2022/05/17 00:24:20;;;;;;;1.70;1.60;;;25.70;44.20;;;;;;5027456;28;20103;-63
2022/05/17 00:26:48;;;;;;;1.65;1.40;;;25.70;44.20;;;;;;5027268;28;20057;-61
2022/05/17 00:29:15;;;;;;;1.50;1.50;;;25.70;44.20;;;;;;5027410;28;20053;-61
2022/05/17 00:31:42;;;;;;;1.65;1.55;;;25.70;44.20;;;;;;5027185;28;20338;-62
2022/05/17 00:34:10;;;;;;;1.55;1.40;;;25.70;44.20;;;;;;5027068;28;20045;-62
2022/05/17 00:36:37;;;;;;;1.48;1.38;;;25.70;44.20;;;;;;5027436;28;20073;-62
2022/05/17 00:39:04;;;;;;;1.70;1.60;;;25.70;44.20;;;;;;5022896;28;20056;-61
2022/05/17 00:41:32;;;;;;;2.13;1.92;;;25.70;44.20;;;;;;5027222;28;20042;-62
2022/05/17 00:47:09;;;;;;;1.50;1.40;;;25.70;44.20;;;;;;5026808;28;20060;-62
2022/05/17 00:49:51;;;;;;;1.70;1.60;;;25.70;44.20;;;;;;5025345;28;20256;-61
2022/05/17 00:52:24;;;;;;;1.40;1.40;;;25.70;44.50;;;;;;5027239;28;20199;-62
2022/05/17 00:54:55;;;;;;;1.60;1.50;;;25.70;44.30;;;;;;5027079;28;20091;-61
2022/05/17 00:57:35;;;;;;;1.58;1.50;;;25.70;44.30;;;;;;5025614;28;20053;-64
2022/05/17 01:00:08;;;;;;;3.30;1.80;;;25.60;44.20;;;;;;5026400;28;20049;-61
2022/05/17 01:02:36;;;;;;;1.60;1.50;;;25.70;44.30;;;;;;5026730;28;20045;-62
2022/05/17 01:05:04;;;;;;;1.85;1.70;;;25.70;44.30;;;;;;5026732;28;20124;-61
2022/05/17 01:07:39;;;;;;;1.85;1.60;;;25.70;44.30;;;;;;5026011;28;20053;-62
2022/05/17 01:10:07;;;;;;;1.92;1.73;;;25.70;44.30;;;;;;5023343;28;20049;-62
2022/05/17 01:12:36;;;;;;;1.70;1.60;;;25.60;44.30;;;;;;5025494;28;20107;-62
2022/05/17 01:15:06;;;;;;;1.70;1.60;;;25.60;44.30;;;;;;5025285;28;20045;-62
2022/05/17 01:17:36;;;;;;;1.58;1.48;;;25.60;44.30;;;;;;5026719;28;20179;-62
2022/05/17 01:20:08;;;;;;;2.47;1.70;;;25.60;44.30;;;;;;5025275;28;20099;-62
2022/05/17 01:22:35;;;;;;;1.70;1.60;;;25.60;44.40;;;;;;5025973;28;20053;-62
2022/05/17 01:25:03;;;;;;;1.80;1.70;;;25.60;44.40;;;;;;5026531;28;20064;-61
2022/05/17 01:27:48;;;;;;;2.33;1.40;;;25.60;44.40;;;;;;5026557;28;20388;-62
2022/05/17 01:30:23;;;;;;;2.17;1.52;;;25.60;44.40;;;;;;5026223;28;20533;-62
2022/05/17 01:32:51;;;;;;;2.15;1.60;;;25.60;44.40;;;;;;5026430;28;20099;-62
2022/05/17 01:35:19;;;;;;;2.20;2.00;;;25.60;44.40;;;;;;5025909;28;20045;-64
2022/05/17 01:37:53;;;;;;;1.52;1.42;;;25.60;44.40;;;;;;5024259;28;20096;-62
2022/05/17 01:40:21;;;;;;;1.83;1.73;;;25.60;44.40;;;;;;5026258;28;20049;-62
2022/05/17 01:42:48;;;;;;;1.67;1.58;;;25.60;44.40;;;;;;5021958;28;20438;-62
2022/05/17 01:45:15;;;;;;;1.40;1.40;;;25.60;44.40;;;;;;5025965;28;20049;-62
2022/05/17 01:47:43;;;;;;;1.60;1.50;;;25.60;44.40;;;;;;5025796;28;20476;-62
2022/05/17 01:50:10;;;;;;;1.65;1.55;;;25.60;44.40;;;;;;5025663;28;20509;-62
2022/05/17 01:52:37;;;;;;;1.50;1.50;;;25.60;44.40;;;;;;5024965;28;20560;-62
2022/05/17 01:55:05;;;;;;;2.10;2.00;;;25.60;44.40;;;;;;5025695;28;20693;-62
2022/05/17 01:57:32;;;;;;;1.80;1.67;;;25.60;44.40;;;;;;5026175;28;20133;-62
2022/05/17 01:59:59;;;;;;;1.63;1.50;;;25.60;44.40;;;;;;5025512;28;20099;-62
2022/05/17 02:02:26;;;;;;;1.70;1.60;;;25.60;44.40;;;;;;5025753;28;20081;-62
2022/05/17 02:04:53;;;;;;;1.77;1.67;;;25.60;44.40;;;;;;5024489;28;20049;-62
2022/05/17 02:07:20;;;;;;;1.80;1.70;;;25.60;44.40;;;;;;5025411;28;20446;-61
2022/05/17 02:09:48;;;;;;;1.50;1.42;;;25.60;44.40;;;;;;5025396;28;20049;-62
2022/05/17 02:12:15;;;;;;;1.70;1.60;;;25.60;44.40;;;;;;5025066;28;20045;-62
2022/05/17 02:14:42;;;;;;;2.20;2.00;;;25.60;44.40;;;;;;5021342;28;20334;-62
2022/05/17 02:17:10;;;;;;;2.05;1.95;;;25.60;44.40;;;;;;5025760;28;20045;-62
2022/05/17 02:19:37;;;;;;;1.80;1.70;;;25.60;44.40;;;;;;5024899;28;20095;-62
2022/05/17 02:22:05;;;;;;;1.95;1.85;;;25.60;45.00;;;;;;5025362;28;20517;-62
2022/05/17 02:24:32;;;;;;;1.98;1.88;;;25.60;44.40;;;;;;5024960;28;20493;-62
2022/05/17 02:26:59;;;;;;;1.80;1.70;;;25.60;44.40;;;;;;5025272;28;20242;-62
2022/05/17 02:29:29;;;;;;;1.75;1.65;;;25.60;44.40;;;;;;5025303;28;20199;-62
2022/05/17 02:31:56;;;;;;;2.03;1.92;;;25.60;44.40;;;;;;5025012;28;20045;-62
2022/05/17 02:34:24;;;;;;;1.70;1.60;;;25.60;44.40;;;;;;5025135;28;20049;-62
2022/05/17 02:36:51;;;;;;;2.00;1.90;;;25.60;44.40;;;;;;5025370;28;20073;-62
2022/05/17 02:39:18;;;;;;;1.90;1.80;;;25.70;44.50;;;;;;5025308;28;20512;-62
2022/05/17 02:41:45;;;;;;;1.75;1.60;;;25.60;44.40;;;;;;5025193;28;20548;-62
2022/05/17 02:44:12;;;;;;;2.28;2.15;;;25.60;44.40;;;;;;5024849;28;20067;-62
2022/05/17 02:46:39;;;;;;;1.65;1.55;;;25.60;44.40;;;;;;5020683;28;20049;-62
2022/05/17 02:49:07;;;;;;;2.20;2.00;;;25.60;44.40;;;;;;5024866;28;20115;-62
2022/05/17 02:51:34;;;;;;;1.75;1.65;;;25.60;44.40;;;;;;5024944;28;20111;-62
2022/05/17 02:54:05;;;;;;;2.85;2.50;;;25.60;44.50;;;;;;5025214;28;20050;-62
2022/05/17 02:56:33;;;;;;;2.00;1.88;;;25.60;44.40;;;;;;5025101;28;20073;-62
2022/05/17 02:59:00;;;;;;;1.50;1.40;;;25.60;44.40;;;;;;5025175;28;20539;-64
2022/05/17 03:01:27;;;;;;;1.60;1.50;;;25.60;44.40;;;;;;5024747;28;20046;-62
2022/05/17 03:03:55;;;;;;;1.65;1.55;;;25.60;44.50;;;;;;5024851;28;20136;-62
2022/05/17 03:06:22;;;;;;;2.15;1.65;;;25.60;44.50;;;;;;5025190;28;20265;-62
2022/05/17 03:08:50;;;;;;;1.98;1.88;;;25.60;44.50;;;;;;5024954;28;20077;-62
2022/05/17 03:11:17;;;;;;;2.13;2.03;;;25.60;44.50;;;;;;5024392;28;20045;-62
2022/05/17 03:13:44;;;;;;;2.00;1.80;;;25.60;44.50;;;;;;5024225;28;20050;-64
2022/05/17 03:16:11;;;;;;;1.88;1.77;;;25.50;44.40;;;;;;5020563;28;20042;-62
2022/05/17 03:18:39;;;;;;;1.70;1.60;;;25.50;44.40;;;;;;5023975;28;20052;-62
2022/05/17 03:21:07;;;;;;;1.98;1.88;;;25.50;44.50;;;;;;5026831;28;20140;-62
2022/05/17 03:23:34;;;;;;;1.90;1.80;;;25.50;44.50;;;;;;5028373;28;20068;-62
2022/05/17 03:26:02;;;;;;;1.80;1.70;;;25.50;44.50;;;;;;5028400;28;20099;-62
2022/05/17 03:28:29;;;;;;;1.98;1.88;;;25.50;44.50;;;;;;5028390;28;20587;-62
2022/05/17 03:30:56;;;;;;;1.83;1.65;;;25.50;44.50;;;;;;5028076;28;20479;-62
2022/05/17 03:33:23;;;;;;;2.33;1.70;;;25.50;44.50;;;;;;5028435;28;20123;-62
2022/05/17 03:35:51;;;;;;;1.92;1.83;;;25.50;44.50;;;;;;5027972;28;20045;-62
2022/05/17 03:38:18;;;;;;;1.88;1.77;;;25.50;44.50;;;;;;5028449;28;20587;-62
2022/05/17 03:40:52;;;;;;;1.95;1.80;;;25.60;44.50;;;;;;5028289;28;20045;-62
2022/05/17 03:43:20;;;;;;;1.92;1.83;;;25.60;44.50;;;;;;5027434;28;20049;-62
2022/05/17 03:45:47;;;;;;;2.20;2.00;;;25.60;44.50;;;;;;5027146;28;20111;-62
2022/05/17 03:48:14;;;;;;;2.00;1.88;;;25.60;44.50;;;;;;5023303;28;20084;-62
2022/05/17 03:50:42;;;;;;;2.17;1.98;;;25.60;44.50;;;;;;5027910;28;20077;-62
2022/05/17 03:53:09;;;;;;;1.95;1.85;;;25.60;44.50;;;;;;5027743;28;20132;-62
2022/05/17 03:55:37;;;;;;;2.22;2.13;;;25.60;44.40;;;;;;5026985;28;20049;-62
2022/05/17 03:58:04;;;;;;;2.15;2.03;;;25.60;44.40;;;;;;5027989;28;20057;-62
2022/05/17 04:00:31;;;;;;;1.83;1.73;;;25.70;44.40;;;;;;5027705;28;20049;-62
2022/05/17 04:02:59;;;;;;;2.75;2.05;;;25.70;44.40;;;;;;5027677;28;20049;-62
2022/05/17 04:05:26;;;;;;;1.90;1.73;;;25.70;44.40;;;;;;5028105;28;20049;-62
2022/05/17 04:07:54;;;;;;;2.03;1.77;;;25.70;44.40;;;;;;5027292;28;20092;-62
2022/05/17 04:10:21;;;;;;;1.90;1.80;;;25.70;44.40;;;;;;5026777;28;20076;-62
2022/05/17 04:12:49;;;;;;;2.25;2.15;;;25.70;44.30;;;;;;5027657;28;20076;-62
2022/05/17 04:15:20;;;;;;;2.58;2.38;;;25.70;44.20;;;;;;5027407;28;20037;-62
2022/05/17 04:17:50;;;;;;;2.15;2.00;;;25.80;44.30;;;;;;5027670;28;20057;-62
2022/05/17 04:20:18;;;;;;;3.40;2.00;;;25.80;44.20;;;;;;5022850;28;20045;-62
2022/05/17 04:22:48;;;;;;;2.25;2.08;;;25.80;44.70;;;;;;5027898;28;20453;-62
2022/05/17 04:25:16;;;;;;;;;;;25.80;44.20;;;;;;5027270;28;20049;-62
2022/05/17 04:27:46;;;;;;;2.15;2.05;;;25.80;44.10;;;;;;5027317;28;19921;-62
2022/05/17 04:30:14;;;;;;;1.98;1.88;;;25.80;44.10;;;;;;5025224;28;20497;-62
2022/05/17 04:32:42;;;;;;;1.98;1.80;;;25.90;44.10;;;;;;5019026;28;20054;-62
2022/05/17 04:35:11;;;;;;;1.80;1.65;;;25.90;44.10;;;;;;5026454;28;20334;-62
2022/05/17 04:37:38;;;;;;;2.03;1.52;;;25.90;44.00;;;;;;5027450;28;20049;-62
2022/05/17 04:40:11;;;;;;;3.65;1.80;;;25.90;44.00;;;;;;5026716;28;20046;-62
2022/05/17 04:42:40;;;;;;;1.90;1.70;;;26.00;44.00;;;;;;5022325;28;20410;-62
2022/05/17 04:45:11;;;;;;;2.20;2.10;;;26.00;43.90;;;;;;5027053;28;20072;-62
2022/05/17 04:47:39;;;;;;;2.65;1.80;;;26.00;43.80;;;;;;5027109;28;20080;-62
2022/05/17 04:50:06;;;;;;;1.83;1.73;;;26.00;43.70;;;;;;5023714;28;20111;-62
2022/05/17 04:52:33;;;;;;;1.88;1.80;;;26.10;43.70;;;;;;5011931;28;20107;-62
2022/05/17 04:55:01;;;;;;;2.08;1.80;;;26.10;43.70;;;;;;5019514;28;20041;-65
2022/05/17 04:57:28;;;;;;;3.15;2.00;;;26.10;43.60;;;;;;5017801;28;20099;-62
2022/05/17 04:59:57;;;;;;;2.10;2.00;;;26.20;43.60;;;;;;5017977;28;20420;-61
2022/05/17 05:02:24;;;;;;;3.10;2.05;;;26.20;43.60;;;;;;5025555;28;20041;-62
2022/05/17 05:04:51;;;;;;;2.17;1.95;;;26.20;43.50;;;;;;5028520;28;20053;-61
2022/05/17 05:07:19;;;;;;;2.17;2.08;;;26.30;43.40;;;;;;5029031;28;20501;-62
2022/05/17 05:09:48;;;;;;;2.42;2.22;;;26.30;43.50;;;;;;5024648;28;20088;-61
2022/05/17 05:12:15;;;;;;;2.35;2.15;;;26.30;43.80;;;;;;5026213;28;20045;-62
2022/05/17 05:14:43;;;;;;;2.15;2.05;;;26.20;43.90;;;;;;5023330;28;20053;-61
2022/05/17 05:17:10;;;;;;;2.15;2.00;;;26.10;44.10;;;;;;5028187;28;20528;-62
2022/05/17 05:19:37;;;;;;;3.00;2.03;;;26.00;44.40;;;;;;5022959;28;20371;-62
2022/05/17 05:22:05;;;;;;;2.00;1.90;;;25.90;44.80;;;;;;5024041;28;20433;-62
2022/05/17 05:24:32;;;;;;;2.53;2.33;;;25.70;45.20;;;;;;5015290;28;20403;-62
2022/05/17 05:27:00;;;;;;;2.25;2.10;;;25.50;45.80;;;;;;5017368;28;20053;-62
2022/05/17 05:29:28;;;;;;;2.10;2.00;;;25.20;46.40;;;;;;5011817;28;20103;-61
2022/05/17 05:31:55;;;;;;;1.90;1.80;;;25.00;47.00;;;;;;5019857;28;20053;-62
2022/05/17 05:34:24;;;;;;;2.30;2.10;;;24.70;47.70;;;;;;5015386;28;20516;-61
2022/05/17 05:36:51;;;;;;;2.33;2.10;;;24.50;48.50;;;;;;5019751;28;20076;-63
2022/05/17 05:39:19;;;;;;;3.05;2.85;;;24.20;49.20;;;;;;5016577;28;20057;-58
2022/05/17 05:41:46;;;;;;;6.20;4.35;;;24.00;50.60;;;;;;5015473;28;20119;-59
2022/05/17 05:44:13;;;;;;;6.32;5.00;;;23.80;52.30;;;;;;5023552;28;20384;-57
2022/05/17 05:46:40;;;;;;;9.15;5.55;;;23.50;53.00;;;;;;5016880;28;20045;-60
2022/05/17 05:49:08;;;;;;;5.07;4.53;;;23.30;53.70;;;;;;5015960;28;20492;-59
2022/05/17 05:51:35;;;;;;;8.00;4.85;;;23.10;54.50;;;;;;5012220;28;20103;-60
2022/05/17 05:54:03;;;;;;;5.97;4.70;;;23.00;54.80;;;;;;5011790;28;20123;-59
2022/05/17 05:56:30;;;;;;;9.57;5.25;;;22.80;54.80;;;;;;5017178;28;20041;-60
2022/05/17 05:58:58;;;;;;;6.10;5.40;;;22.70;55.00;;;;;;5014163;28;20103;-61
2022/05/17 06:01:26;;;;;;;12.02;5.88;;;22.60;55.90;;;;;;5019018;28;20053;-63
2022/05/17 06:03:53;;;;;;;8.80;5.50;;;22.40;55.90;;;;;;5013545;28;20053;-60
2022/05/17 06:06:21;;;;;;;8.82;4.82;;;22.30;56.00;;;;;;5015753;28;20045;-60
2022/05/17 06:08:50;;;;;;;4.72;4.18;;;22.20;56.00;;;;;;5017989;28;20049;-64
2022/05/17 06:11:17;;;;;;;4.50;4.10;;;22.10;56.10;;;;;;5020976;28;20386;-63
2022/05/17 06:13:45;;;;;;;7.28;4.85;;;22.10;56.60;;;;;;5024290;28;20057;-63
2022/05/17 06:16:12;;;;;;;6.25;4.68;;;22.00;56.90;;;;;;5014369;28;20069;-62
2022/05/17 06:18:40;;;;;;;5.43;4.75;;;21.90;57.10;;;;;;5019345;28;20195;-65
2022/05/17 06:21:07;;;;;;;6.32;4.45;;;21.90;57.00;;;;;;5016859;28;20556;-62
2022/05/17 06:23:35;;;;;;;6.10;3.97;;;21.80;56.80;;;;;;5018863;28;20046;-59
2022/05/17 06:26:03;;;;;;;6.55;4.18;;;21.80;57.20;;;;;;5020251;28;20481;-63
2022/05/17 06:28:30;;;;;;;5.20;4.20;;;21.70;56.90;;;;;;5022737;28;20076;-62
2022/05/17 06:30:57;;;;;;;5.43;3.75;;;21.70;56.90;;;;;;5013151;28;20077;-71
2022/05/17 06:33:26;;;;;;;5.15;3.60;;;21.70;57.30;;;;;;5018776;28;20081;-71
2022/05/17 06:35:54;;;;;;;6.78;3.65;;;21.70;57.90;;;;;;5019613;28;20045;-64
2022/05/17 06:38:22;;;;;;;11.50;3.25;;;21.70;57.70;;;;;;5021645;28;20067;-63
2022/05/17 06:40:50;;;;;;;3.67;2.80;;;21.70;57.20;;;;;;5019190;28;20115;-75
2022/05/17 06:43:17;;;;;;;4.82;2.40;;;21.70;57.20;;;;;;5025718;28;20461;-63
2022/05/17 06:45:45;;;;;;;9.23;2.47;;;21.80;56.90;;;;;;5021091;28;20085;-62
2022/05/17 06:48:12;;;;;;;5.13;1.95;;;21.80;56.80;;;;;;5018741;28;20504;-61
2022/05/17 06:50:40;;;;;;;3.30;2.13;;;21.80;56.70;;;;;;5013935;28;20045;-64
2022/05/17 06:53:08;;;;;;;7.55;2.45;;;21.80;56.20;;;;;;5025299;28;20064;-66
2022/05/17 06:55:37;;;;;;;3.15;2.33;;;21.80;55.90;;;;;;5019004;28;20486;-65
2022/05/17 06:58:05;;;;;;;5.80;2.25;;;21.80;56.00;;;;;;5019109;28;20049;-63
2022/05/17 07:00:32;;;;;;;4.70;2.45;;;21.80;56.10;;;;;;5025717;28;20498;-61
2022/05/17 07:03:00;;;;;;;2.50;1.80;;;21.80;56.00;;;;;;5020127;28;20048;-63
2022/05/17 07:05:28;;;;;;;1.95;1.75;;;21.70;56.40;;;;;;5024964;28;20049;-64
2022/05/17 07:08:00;;;;;;;2.58;2.10;;;21.70;56.50;;;;;;5023741;28;20107;-65
2022/05/17 07:13:16;;;;;;;2.65;1.88;;;21.70;57.10;;;;;;5021117;28;20045;-62
2022/05/17 07:15:47;;;;;;;2.60;1.60;;;21.70;57.20;;;;;;5019892;28;20128;-61
2022/05/17 07:18:18;;;;;;;6.38;1.83;;;21.60;57.10;;;;;;5028276;28;20045;-64
2022/05/17 07:20:47;;;;;;;1.75;1.40;;;21.60;56.90;;;;;;5027996;28;20102;-63
2022/05/17 07:23:15;;;;;;;4.68;1.40;;;21.60;57.40;;;;;;5021944;28;20041;-61
2022/05/17 07:25:45;;;;;;;4.25;1.50;;;21.70;57.00;;;;;;5025591;28;20061;-61
2022/05/17 07:28:19;;;;;;;2.88;1.45;;;21.70;56.80;;;;;;5023135;28;20492;-60
2022/05/17 07:30:47;;;;;;;4.15;1.83;;;21.60;57.00;;;;;;5018142;28;20049;-61
2022/05/17 07:33:15;;;;;;;1.90;1.38;;;21.70;57.00;;;;;;5024040;28;20502;-61
2022/05/17 07:35:42;;;;;;;3.75;1.27;;;21.60;56.90;;;;;;5018971;28;20407;-60
2022/05/17 07:38:10;;;;;;;1.45;1.17;;;21.60;57.00;;;;;;5021244;28;20053;-59
2022/05/17 07:40:37;;;;;;;1.30;1.20;;;21.60;57.40;;;;;;5023745;28;20111;-59
2022/05/17 07:43:05;;;;;;;3.28;1.52;;;21.60;57.50;;;;;;5021783;28;20053;-64
2022/05/17 07:45:32;;;;;;;3.90;1.25;;;21.60;57.60;;;;;;5027309;28;20049;-60
2022/05/17 07:48:01;;;;;;;5.22;1.45;;;21.60;57.60;;;;;;5024616;28;20080;-61
2022/05/17 07:50:29;;;;;;;2.87;1.27;;;21.60;57.60;;;;;;5020760;28;20055;-63
2022/05/17 07:52:56;;;;;;;2.90;1.60;;;21.60;57.60;;;;;;5025790;28;20049;-60
2022/05/17 07:55:24;;;;;;;2.47;1.48;;;21.60;57.50;;;;;;5019528;28;20045;-59
2022/05/17 07:57:51;;;;;;;1.65;1.55;;;21.60;57.30;;;;;;5026630;28;20049;-60
2022/05/17 08:00:18;;;;;;;2.03;1.23;;;21.70;57.30;;;;;;5016583;28;20049;-62
2022/05/17 08:02:46;;;;;;;1.70;1.50;;;21.70;57.20;;;;;;5025373;28;20120;-61
2022/05/17 08:05:14;;;;;;;1.85;1.20;;;21.80;57.20;;;;;;5023767;28;20041;-62
2022/05/17 08:07:41;;;;;;;1.23;1.13;;;21.80;57.20;;;;;;5024148;28;20058;-63
2022/05/17 08:10:09;;;;;;;1.63;1.52;;;21.70;57.30;;;;;;5026860;28;20084;-60
2022/05/17 08:12:36;;;;;;;1.40;1.25;;;21.70;57.20;;;;;;5025160;28;20045;-61
2022/05/17 08:15:05;;;;;;;3.35;1.55;;;21.80;57.30;;;;;;5024858;28;20091;-61
2022/05/17 08:17:32;;;;;;;2.72;1.20;;;21.80;57.20;;;;;;5039265;28;20111;-60
2022/05/17 08:19:59;;;;;;;3.00;1.30;;;21.80;57.10;;;;;;5019366;28;20045;-59
2022/05/17 08:22:26;;;;;;;1.77;1.40;;;21.80;57.20;;;;;;5021378;28;20049;-61
2022/05/17 08:27:42;;;;;;;1.15;1.15;;;21.80;57.30;;;;;;5021170;28;20044;-59
2022/05/17 08:30:16;;;;;;;1.25;1.10;;;21.70;57.00;;;;;;5019835;28;20132;-60
2022/05/17 08:35:53;;;;;;;4.35;1.20;;;21.70;57.20;;;;;;5020746;28;20045;-59
2022/05/17 08:38:31;;;;;;;2.75;1.20;;;21.70;57.20;;;;;;5019901;28;20787;-59
2022/05/17 08:41:38;;;;;;;2.15;1.20;;;21.70;57.20;;;;;;5015970;28;20073;-59
2022/05/17 08:44:13;;;;;;;1.88;1.40;;;21.60;57.70;;;;;;5041549;28;20048;-60
2022/05/17 08:47:05;;;;;;;1.58;1.13;;;21.60;57.20;;;;;;5016251;28;20189;-62
2022/05/17 08:49:58;;;;;;;1.13;1.13;;;21.60;57.30;;;;;;5022993;28;20398;-59
2022/05/17 08:52:27;;;;;;;1.27;1.10;;;21.60;57.40;;;;;;5015110;28;20111;-61
2022/05/17 08:55:20;;;;;;;2.80;1.33;;;21.60;57.50;;;;;;5018864;28;20045;-59
2022/05/17 08:58:05;;;;;;;1.63;0.93;;;21.50;57.30;;;;;;5020265;28;20054;-59
2022/05/17 09:00:43;;;;;;;2.88;0.98;;;21.60;57.30;;;;;;5017253;28;20134;-63
2022/05/17 09:03:38;;;;;;;2.35;1.20;;;21.60;57.30;;;;;;5016280;28;20555;-62
2022/05/17 09:06:25;;;;;;;3.40;1.20;;;21.50;57.10;;;;;;5018811;28;20053;-61
2022/05/17 09:09:18;;;;;;;2.38;1.20;;;21.50;57.00;;;;;;5019802;28;20136;-63
2022/05/17 09:12:03;;;;;;;1.40;1.30;;;21.50;57.10;;;;;;5017185;28;20069;-61
2022/05/17 09:14:33;;;;;;;1.25;1.08;;;21.40;56.90;;;;;;5018604;28;20489;-62
2022/05/17 09:17:06;;;;;;;2.88;1.88;;;21.40;57.20;;;;;;5022072;28;20500;-64
2022/05/17 09:19:34;;;;;;;1.23;1.20;;;21.40;57.20;;;;;;5023837;28;20079;-63
2022/05/17 09:22:02;;;;;;;0.90;0.90;;;21.30;57.10;;;;;;5017422;28;20390;-64
2022/05/17 09:24:37;;;;;;;0.93;0.93;;;21.30;57.60;;;;;;5021733;28;20437;-61
2022/05/17 09:27:28;;;;;;;1.38;1.08;;;21.30;57.90;;;;;;5022228;28;20064;-62
2022/05/17 09:30:12;;;;;;;1.92;1.15;;;21.30;57.50;;;;;;5018778;28;20411;-63
2022/05/17 09:32:44;;;;;;;2.15;1.10;;;21.30;57.30;;;;;;5019940;28;20041;-62
2022/05/17 09:35:18;;;;;;;1.27;1.00;;;21.30;57.90;;;;;;5012519;28;20049;-63
2022/05/17 09:37:53;;;;;;;1.05;1.05;;;21.30;57.60;;;;;;5017645;28;20426;-61
2022/05/17 09:40:24;;;;;;;1.05;1.05;;;21.30;57.30;;;;;;5017306;28;20087;-64
2022/05/17 09:43:06;;;;;;;4.13;1.10;;;21.30;57.70;;;;;;5022334;28;20689;-62
2022/05/17 09:45:50;;;;;;;1.27;1.02;;;21.40;58.00;;;;;;5021067;28;20556;-62
2022/05/17 09:52:32;;;;;;;0.98;0.93;;;21.40;57.30;;;;;;5019060;28;20042;-62
2022/05/17 09:54:35;;;;;;;1.50;1.00;;;21.50;57.60;;;;;;5025027;28;20563;-62
2022/05/17 09:57:23;;;;;;;1.10;1.00;;;21.50;56.90;;;;;;5020923;28;20382;-61
2022/05/17 09:59:55;;;;;;;0.93;0.93;;;21.50;56.90;;;;;;5017806;28;20060;-63
2022/05/17 10:02:35;;;;;;;0.80;0.80;;;21.50;56.90;;;;;;5016427;28;20073;-61
2022/05/17 10:05:23;;;;;;;1.15;0.85;;;21.50;56.70;;;;;;5021788;28;20056;-60
2022/05/17 10:08:02;;;;;;;1.10;1.00;;;21.40;56.90;;;;;;5010362;28;20100;-62
2022/05/17 10:10:40;;;;;;;1.77;1.08;;;21.40;57.00;;;;;;5017499;28;20053;-65
2022/05/17 10:13:23;;;;;;;3.78;1.05;;;21.40;56.80;;;;;;5016597;28;20493;-62
2022/05/17 10:15:56;;;;;;;2.58;1.00;;;21.40;57.10;;;;;;5018817;28;20485;-61
2022/05/17 10:18:45;;;;;;;1.25;1.15;;;21.40;57.10;;;;;;5016024;28;20054;-62
2022/05/17 10:21:19;;;;;;;1.13;1.05;;;21.40;57.30;;;;;;5017367;28;20061;-63
2022/05/17 10:24:22;;;;;;;1.20;1.10;;;21.40;57.40;;;;;;5018529;28;20064;-62
2022/05/17 10:27:07;;;;;;;2.20;0.82;;;21.40;57.20;;;;;;5017720;28;20054;-61
2022/05/17 10:29:54;;;;;;;0.98;0.93;;;21.40;57.10;;;;;;5016073;28;20049;-62
2022/05/17 10:32:51;;;;;;;1.75;1.45;;;21.40;57.10;;;;;;5018447;28;20049;-66
2022/05/17 10:35:34;;;;;;;1.10;1.05;;;21.50;57.00;;;;;;5021587;28;20108;-61
2022/05/17 10:38:15;;;;;;;1.05;0.95;;;21.50;56.90;;;;;;5021253;28;20136;-62
2022/05/17 10:40:46;;;;;;;1.58;1.13;;;21.50;56.80;;;;;;5028321;28;20061;-61
2022/05/17 10:43:18;;;;;;;0.93;0.93;;;21.50;56.80;;;;;;5020993;28;20049;-61
2022/05/17 10:46:00;;;;;;;1.65;1.20;;;21.50;56.60;;;;;;5021279;28;20088;-61
2022/05/17 10:48:52;;;;;;;1.38;0.80;;;21.60;57.00;;;;;;5020790;28;20065;-60
2022/05/17 10:51:41;;;;;;;3.10;1.10;;;21.60;57.20;;;;;;5019007;28;19972;-61
2022/05/17 10:54:35;;;;;;;1.45;0.95;;;21.60;57.10;;;;;;5011253;28;20053;-62
2022/05/17 10:57:23;;;;;;;1.63;1.10;;;21.60;56.80;;;;;;5018863;28;20038;-62
2022/05/17 11:00:18;;;;;;;0.98;0.98;;;21.60;56.90;;;;;;5023137;28;20475;-61
2022/05/17 11:03:14;;;;;;;1.20;1.20;;;21.50;56.90;;;;;;5018042;28;20042;-61
2022/05/17 11:06:19;;;;;;;1.20;1.20;;;21.50;56.90;;;;;;5014015;28;20084;-62
2022/05/17 11:09:27;;;;;;;0.98;0.98;;;21.50;57.10;;;;;;5016314;28;20129;-63
2022/05/17 11:12:08;;;;;;;1.10;1.00;;;21.50;57.50;;;;;;5022033;28;20084;-67
2022/05/17 11:14:45;;;;;;;3.55;1.75;;;21.50;57.80;;;;;;5025704;28;20037;-65
2022/05/17 11:17:36;;;;;;;2.15;1.20;;;21.60;58.30;;;;;;5021799;28;20164;-63
2022/05/17 11:20:10;;;;;;;;;;;21.60;58.60;;;;;;5022299;28;20097;-65
2022/05/17 11:23:11;;;;;;;1.38;1.33;;;21.60;58.50;;;;;;5021116;28;20008;-62
2022/05/17 11:26:18;;;;;;;0.95;0.95;;;21.60;58.20;;;;;;5017791;28;20077;-62
2022/05/17 11:29:13;;;;;;;1.10;1.10;;;21.70;58.60;;;;;;5018929;28;20137;-62
2022/05/17 11:32:18;;;;;;;2.58;1.10;;;21.70;58.50;;;;;;5014250;28;20108;-62
2022/05/17 11:34:45;;;;;;;2.97;1.38;;;21.70;58.30;;;;;;5037056;28;20401;-63
2022/05/17 11:37:45;;;;;;;1.67;1.50;;;21.80;58.40;;;;;;5019326;28;20915;-64
2022/05/17 11:40:51;;;;;;;3.78;1.02;;;21.80;58.40;;;;;;5022679;28;20055;-65
2022/05/17 11:43:46;;;;;;;0.93;0.93;;;21.80;58.50;;;;;;5020541;28;20045;-63
2022/05/17 11:46:40;;;;;;;0.95;0.95;;;21.80;58.40;;;;;;5023049;28;20546;-64
2022/05/17 11:49:28;;;;;;;1.38;1.27;;;21.90;58.40;;;;;;5022121;28;20082;-62
2022/05/17 11:52:24;;;;;;;2.53;1.17;;;21.90;58.40;;;;;;5022507;28;20405;-62
2022/05/17 11:54:53;;;;;;;2.92;1.30;;;22.00;58.40;;;;;;5027881;28;20053;-63
2022/05/17 11:58:00;;;;;;;1.17;0.98;;;22.00;58.50;;;;;;5022428;28;20068;-67
2022/05/17 12:00:37;;;;;;;1.27;1.15;;;22.00;58.60;;;;;;5038440;28;20048;-62
2022/05/17 12:03:04;;;;;;;1.10;1.10;;;22.10;58.60;;;;;;5026420;28;20049;-62
2022/05/17 12:05:55;;;;;;;0.98;0.98;;;22.10;58.50;;;;;;5027559;28;20100;-62
2022/05/17 12:08:40;;;;;;;;;;;22.20;58.30;;;;;;5022965;28;20486;-62
2022/05/17 12:11:44;;;;;;;1.65;0.82;;;22.20;58.30;;;;;;5029431;28;19920;-63
2022/05/17 12:14:36;;;;;;;1.08;1.08;;;22.20;58.10;;;;;;5020203;28;20116;-60
2022/05/17 12:17:17;;;;;;;2.58;2.28;;;22.30;58.30;;;;;;5023085;28;20093;-60
2022/05/17 12:20:10;;;;;;;2.83;2.00;;;22.30;58.70;;;;;;5023678;28;20072;-62
2022/05/17 12:23:05;;;;;;;3.22;2.60;;;22.40;58.30;;;;;;5025347;28;20045;-63
2022/05/17 12:26:00;;;;;;;3.88;3.15;;;22.50;58.20;;;;;;5018595;28;20049;-62
2022/05/17 12:28:46;;;;;;;4.07;3.10;;;22.50;58.20;;;;;;5023106;28;20045;-61
2022/05/17 12:31:20;;;;;;;4.60;3.03;;;22.50;57.90;;;;;;5022867;28;20122;-62
2022/05/17 12:33:49;;;;;;;3.13;2.75;;;22.50;58.00;;;;;;5022549;28;20037;-60
2022/05/17 12:36:26;;;;;;;3.55;2.72;;;22.50;57.50;;;;;;5024246;28;20061;-61
2022/05/17 12:44:44;;;;;;;2.90;1.58;;;22.50;57.60;;;;;;5020263;28;20822;-63
2022/05/17 12:47:21;;;;;;;2.50;1.38;;;22.40;57.30;;;;;;5021634;28;20079;-59
2022/05/17 12:49:54;;;;;;;4.25;2.72;;;22.30;57.30;;;;;;5024537;28;20054;-62
2022/05/17 12:52:33;;;;;;;3.45;2.13;;;22.30;57.00;;;;;;5019712;28;20551;-62
2022/05/17 12:55:07;;;;;;;1.75;1.65;;;22.20;57.20;;;;;;5022133;28;20045;-62
2022/05/17 12:57:38;;;;;;;2.47;1.58;;;22.10;57.60;;;;;;5021013;28;20069;-64
2022/05/17 13:00:12;;;;;;;3.85;1.63;;;22.00;57.90;;;;;;5019550;28;20038;-63
2022/05/17 13:02:44;;;;;;;1.30;1.20;;;22.00;58.00;;;;;;5023176;28;20053;-62
2022/05/17 13:05:35;;;;;;;4.85;1.20;;;21.90;58.20;;;;;;5022500;28;20047;-63
2022/05/17 13:08:09;;;;;;;3.38;1.65;;;21.90;58.60;;;;;;5030645;28;20053;-61
2022/05/17 13:10:39;;;;;;;1.83;1.50;;;21.90;58.60;;;;;;5021258;28;20050;-60
2022/05/17 13:13:15;;;;;;;1.77;1.23;;;21.80;58.60;;;;;;5039119;28;20444;-60
2022/05/17 13:15:57;;;;;;;1.35;1.25;;;21.80;58.70;;;;;;5023187;28;20049;-61
2022/05/17 13:18:33;;;;;;;2.05;1.52;;;21.80;58.90;;;;;;5018485;28;20148;-61
2022/05/17 13:21:03;;;;;;;1.10;1.00;;;21.80;58.80;;;;;;5021332;28;20049;-61
2022/05/17 13:23:31;;;;;;;1.40;1.20;;;21.80;58.80;;;;;;5024653;28;20508;-62
2022/05/17 13:26:02;;;;;;;3.55;1.60;;;21.80;59.40;;;;;;5023644;28;20088;-62
2022/05/17 13:28:32;;;;;;;1.20;1.10;;;21.70;59.30;;;;;;5024028;28;20451;-61
2022/05/17 13:31:05;;;;;;;;;;;21.70;58.70;;;;;;5032620;28;20107;-62
2022/05/17 13:33:35;;;;;;;3.13;1.45;;;21.70;59.40;;;;;;5018458;28;19920;-61
2022/05/17 13:36:09;;;;;;;2.42;1.48;;;21.70;59.40;;;;;;5018460;28;20045;-63
2022/05/17 13:38:38;;;;;;;2.72;1.23;;;21.70;58.70;;;;;;5019998;28;21057;-61
2022/05/17 13:41:27;;;;;;;1.55;0.98;;;21.70;59.00;;;;;;5025512;28;20052;-66